createdAt,value
2023-01-09T00:01:50.486Z,0.69
2023-01-09T00:04:19.599Z,0.65
2023-01-09T00:06:54.068Z,0.62
2023-01-09T00:09:24.577Z,0.57
2023-01-09T00:11:54.959Z,0.55
2023-01-09T00:14:24.341Z,0.52
2023-01-09T00:16:55.499Z,0.51
2023-01-09T00:19:23.971Z,0.53
2023-01-09T00:21:52.237Z,0.58
2023-01-09T00:24:20.497Z,0.60
2023-01-09T00:26:48.979Z,0.55
2023-01-09T00:29:18.087Z,0.50
2023-01-09T00:31:46.385Z,0.43
2023-01-09T00:34:14.752Z,0.39
2023-01-09T00:36:43.062Z,0.37
2023-01-09T00:39:11.493Z,0.31
2023-01-09T00:41:47.128Z,0.30
2023-01-09T00:44:35.004Z,0.32
2023-01-09T00:47:07.964Z,0.38
2023-01-09T00:49:37.783Z,0.43
2023-01-09T00:52:08.102Z,0.48
2023-01-09T00:54:37.309Z,0.58
2023-01-09T00:57:05.934Z,0.74
2023-01-09T00:59:34.282Z,0.89
2023-01-09T01:02:02.801Z,1.07
2023-01-09T01:04:49.901Z,1.27
2023-01-09T01:07:37.228Z,1.49
2023-01-09T01:10:13.059Z,1.65
2023-01-09T01:12:41.487Z,1.81
2023-01-09T01:15:11.014Z,1.96
2023-01-09T01:17:41.090Z,2.07
2023-01-09T01:20:13.432Z,2.18
2023-01-09T01:22:42.574Z,2.28
2023-01-09T01:25:13.689Z,2.38
2023-01-09T01:27:42.007Z,2.47
2023-01-09T01:30:13.679Z,2.55
2023-01-09T01:32:42.081Z,2.65
2023-01-09T01:35:11.759Z,2.74
2023-01-09T01:37:40.867Z,2.82
2023-01-09T01:40:11.693Z,2.88
2023-01-09T01:42:47.429Z,2.92
2023-01-09T01:45:28.276Z,2.96
2023-01-09T01:48:07.130Z,3.01
2023-01-09T01:50:48.386Z,3.06
2023-01-09T01:53:24.918Z,3.08
2023-01-09T01:56:12.155Z,3.10
2023-01-09T01:58:45.688Z,3.11
2023-01-09T02:01:15.299Z,3.13
2023-01-09T02:03:45.207Z,3.15
2023-01-09T02:06:14.094Z,3.16
2023-01-09T02:08:43.824Z,3.17
2023-01-09T02:11:14.711Z,3.18
2023-01-09T02:13:43.096Z,3.18
2023-01-09T02:16:45.695Z,3.19
2023-01-09T02:19:22.980Z,3.21
2023-01-09T02:22:16.378Z,3.23
2023-01-09T02:25:20.079Z,3.27
2023-01-09T02:28:20.737Z,3.31
2023-01-09T02:31:40.662Z,3.35
2023-01-09T02:34:31.502Z,3.38
2023-01-09T02:37:09.145Z,3.40
2023-01-09T02:39:47.564Z,3.43
2023-01-09T02:42:24.449Z,3.44
2023-01-09T02:44:53.647Z,3.45
2023-01-09T02:47:21.943Z,3.46
2023-01-09T02:50:00.326Z,3.47
2023-01-09T02:52:48.049Z,3.47
2023-01-09T02:55:25.307Z,3.48
2023-01-09T02:58:04.901Z,3.48
2023-01-09T03:01:01.442Z,3.49
2023-01-09T03:03:45.412Z,3.49
2023-01-09T03:06:32.785Z,3.49
2023-01-09T03:09:12.131Z,3.50
2023-01-09T03:11:47.882Z,3.51
2023-01-09T03:14:21.013Z,3.52
2023-01-09T03:16:55.577Z,3.53
2023-01-09T03:19:29.793Z,3.55
2023-01-09T03:21:59.077Z,3.52
2023-01-09T03:24:27.597Z,3.42
2023-01-09T03:26:55.885Z,3.29
2023-01-09T03:29:24.245Z,3.18
2023-01-09T03:31:52.729Z,3.05
2023-01-09T03:34:20.994Z,2.91
2023-01-09T03:36:49.231Z,2.82
2023-01-09T03:39:17.624Z,2.77
2023-01-09T03:41:45.903Z,2.69
2023-01-09T03:44:14.258Z,2.62
2023-01-09T03:46:42.586Z,2.57
2023-01-09T03:49:10.924Z,2.54
2023-01-09T03:51:39.240Z,2.59
2023-01-09T03:54:07.773Z,2.68
2023-01-09T03:56:36.095Z,2.78
2023-01-09T03:59:04.446Z,2.86
2023-01-09T04:01:33.701Z,2.94
2023-01-09T04:04:02.255Z,3.00
2023-01-09T04:06:30.823Z,2.99
2023-01-09T04:08:59.221Z,2.93
2023-01-09T04:11:27.504Z,2.88
2023-01-09T04:13:55.786Z,2.92
2023-01-09T04:16:24.169Z,2.98
2023-01-09T04:18:52.471Z,3.04
2023-01-09T04:21:20.748Z,3.10
2023-01-09T04:23:49.114Z,3.16
2023-01-09T04:26:17.409Z,3.22
2023-01-09T04:28:45.642Z,3.28
2023-01-09T04:31:14.297Z,3.33
2023-01-09T04:33:42.601Z,3.38
2023-01-09T04:36:10.995Z,3.44
2023-01-09T04:38:39.509Z,3.50
2023-01-09T04:41:07.816Z,3.55
2023-01-09T04:43:36.210Z,3.61
2023-01-09T04:46:04.663Z,3.66
2023-01-09T04:48:32.979Z,3.69
2023-01-09T04:51:01.296Z,3.75
2023-01-09T04:53:29.644Z,3.81
2023-01-09T04:55:57.923Z,3.86
2023-01-09T04:58:26.170Z,3.88
2023-01-09T05:00:54.635Z,3.89
2023-01-09T05:03:22.980Z,3.90
2023-01-09T05:05:51.861Z,3.91
2023-01-09T05:08:20.255Z,3.93
2023-01-09T05:10:48.549Z,3.97
2023-01-09T05:13:16.809Z,4.02
2023-01-09T05:15:45.172Z,4.05
2023-01-09T05:18:13.456Z,4.06
2023-01-09T05:20:41.707Z,4.05
2023-01-09T05:23:10.119Z,4.04
2023-01-09T05:25:38.475Z,4.06
2023-01-09T05:28:06.797Z,4.09
2023-01-09T05:30:35.112Z,4.11
2023-01-09T05:33:03.366Z,4.14
2023-01-09T05:35:31.756Z,4.13
2023-01-09T05:38:00.119Z,4.13
2023-01-09T05:40:32.336Z,4.14
2023-01-09T05:43:06.995Z,4.14
2023-01-09T05:45:35.918Z,4.14
2023-01-09T05:48:04.281Z,4.14
2023-01-09T05:50:32.703Z,4.14
2023-01-09T05:53:01.126Z,4.13
2023-01-09T05:55:29.496Z,4.11
2023-01-09T05:57:57.943Z,4.06
2023-01-09T06:00:26.237Z,3.99
2023-01-09T06:02:54.616Z,3.92
2023-01-09T06:05:23.327Z,3.87
2023-01-09T06:07:54.849Z,3.83
2023-01-09T06:10:23.237Z,3.82
2023-01-09T06:12:53.271Z,3.82
2023-01-09T06:15:21.700Z,3.82
2023-01-09T06:17:50.523Z,3.82
2023-01-09T06:20:18.947Z,3.85
2023-01-09T06:22:47.349Z,3.87
2023-01-09T06:25:15.842Z,3.83
2023-01-09T06:27:44.166Z,3.82
2023-01-09T06:30:14.642Z,3.82
2023-01-09T06:32:43.064Z,3.84
2023-01-09T06:35:11.990Z,3.88
2023-01-09T06:37:40.463Z,3.92
2023-01-09T06:40:09.583Z,3.97
2023-01-09T06:42:37.930Z,4.01
2023-01-09T06:45:06.997Z,4.09
2023-01-09T06:47:35.316Z,4.14
2023-01-09T06:50:03.956Z,4.19
2023-01-09T06:52:32.291Z,4.22
2023-01-09T06:55:00.672Z,4.26
2023-01-09T06:57:29.053Z,4.27
2023-01-09T06:59:57.916Z,4.27
2023-01-09T07:02:26.333Z,4.27
2023-01-09T07:04:54.705Z,4.29
2023-01-09T07:07:23.039Z,4.32
2023-01-09T07:09:51.466Z,4.36
2023-01-09T07:12:19.826Z,4.40
2023-01-09T07:14:48.170Z,4.42
2023-01-09T07:17:16.497Z,4.41
2023-01-09T07:19:46.821Z,4.42
2023-01-09T07:22:15.042Z,4.45
2023-01-09T07:24:44.523Z,4.47
2023-01-09T07:27:14.830Z,4.50
2023-01-09T07:29:43.168Z,4.55
2023-01-09T07:32:11.643Z,4.59
2023-01-09T07:34:43.974Z,4.66
2023-01-09T07:37:12.363Z,4.73
2023-01-09T07:39:40.660Z,4.79
2023-01-09T07:42:08.995Z,4.85
2023-01-09T07:44:38.481Z,4.91
2023-01-09T07:47:06.916Z,4.95
2023-01-09T07:49:35.415Z,5.01
2023-01-09T07:52:05.052Z,5.07
2023-01-09T07:55:00.475Z,5.11
2023-01-09T07:57:30.792Z,5.14
2023-01-09T08:00:01.163Z,5.15
2023-01-09T08:02:40.582Z,5.17
2023-01-09T08:05:13.661Z,5.17
2023-01-09T08:07:43.076Z,5.20
2023-01-09T08:10:12.273Z,5.22
2023-01-09T08:12:43.877Z,5.24
2023-01-09T08:15:12.457Z,5.26
2023-01-09T08:17:43.251Z,5.27
2023-01-09T08:20:13.911Z,5.26
2023-01-09T08:22:43.628Z,5.26
2023-01-09T08:25:12.572Z,5.24
2023-01-09T08:27:41.347Z,5.23
2023-01-09T08:30:10.224Z,5.20
2023-01-09T08:32:39.497Z,5.18
2023-01-09T08:35:09.220Z,5.15
2023-01-09T08:37:37.552Z,5.13
2023-01-09T08:40:06.304Z,5.12
2023-01-09T08:42:53.352Z,5.12
2023-01-09T08:45:40.174Z,5.12
2023-01-09T08:48:08.661Z,5.13
2023-01-09T08:50:39.298Z,5.16
2023-01-09T08:53:07.599Z,5.19
2023-01-09T08:55:35.952Z,5.22
2023-01-09T08:58:04.457Z,5.27
2023-01-09T09:00:32.800Z,5.29
2023-01-09T09:03:01.727Z,5.31
2023-01-09T09:05:32.334Z,5.34
2023-01-09T09:08:00.703Z,5.37
2023-01-09T09:10:30.082Z,5.45
2023-01-09T09:12:59.617Z,5.57
2023-01-09T09:15:28.919Z,5.69
2023-01-09T09:18:02.275Z,5.83
2023-01-09T09:20:37.149Z,5.94
2023-01-09T09:23:05.963Z,6.04
2023-01-09T09:25:34.404Z,6.13
2023-01-09T09:28:03.088Z,6.21
2023-01-09T09:30:31.374Z,6.31
2023-01-09T09:32:59.702Z,6.42
2023-01-09T09:35:28.643Z,6.55
2023-01-09T09:37:59.243Z,6.70
2023-01-09T09:40:53.297Z,6.80
2023-01-09T09:44:10.880Z,6.93
2023-01-09T09:46:44.730Z,7.07
2023-01-09T09:49:21.563Z,7.15
2023-01-09T09:52:06.516Z,7.24
2023-01-09T09:54:41.148Z,7.36
2023-01-09T09:57:17.710Z,7.43
2023-01-09T09:59:51.548Z,7.50
2023-01-09T10:02:29.119Z,7.58
2023-01-09T10:05:05.408Z,7.66
2023-01-09T10:07:42.261Z,7.74
2023-01-09T10:10:37.274Z,7.82
2023-01-09T10:13:25.687Z,7.90
2023-01-09T10:16:22.525Z,7.98
2023-01-09T10:19:21.480Z,8.04
2023-01-09T10:22:02.317Z,8.09
2023-01-09T10:24:58.376Z,8.15
2023-01-09T10:27:45.538Z,8.21
2023-01-09T10:30:28.284Z,8.27
2023-01-09T10:33:17.221Z,8.34
2023-01-09T10:36:10.998Z,8.43
2023-01-09T10:38:47.615Z,8.53
2023-01-09T10:41:27.413Z,8.62
2023-01-09T10:44:03.267Z,8.71
2023-01-09T10:46:43.992Z,8.80
2023-01-09T10:49:17.881Z,8.89
2023-01-09T10:51:50.171Z,8.99
2023-01-09T10:54:22.375Z,9.06
2023-01-09T10:57:07.415Z,9.13
2023-01-09T10:59:35.797Z,9.20
2023-01-09T11:02:04.296Z,9.27
2023-01-09T11:04:37.770Z,9.32
2023-01-09T11:07:24.951Z,9.38
2023-01-09T11:10:04.449Z,9.46
2023-01-09T11:12:37.620Z,9.54
2023-01-09T11:15:21.373Z,9.62
2023-01-09T11:17:52.046Z,9.70
2023-01-09T11:20:23.503Z,9.77
2023-01-09T11:23:00.418Z,9.84
2023-01-09T11:25:30.818Z,9.94
2023-01-09T11:28:09.993Z,10.06
2023-01-09T11:30:55.577Z,10.22
2023-01-09T11:33:26.209Z,10.37
2023-01-09T11:36:02.110Z,10.54
2023-01-09T11:38:45.927Z,10.71
2023-01-09T11:41:21.215Z,10.85
2023-01-09T11:43:54.675Z,10.95
2023-01-09T11:46:44.321Z,11.02
2023-01-09T11:49:13.724Z,11.06
2023-01-09T11:51:43.263Z,11.08
2023-01-09T11:54:24.170Z,11.07
2023-01-09T11:56:56.151Z,11.04
2023-01-09T11:59:32.976Z,11.03
2023-01-09T12:02:46.172Z,11.03
2023-01-09T12:05:46.772Z,11.08
2023-01-09T12:08:36.662Z,11.22
2023-01-09T12:11:15.035Z,11.33
2023-01-09T12:13:52.486Z,11.44
2023-01-09T12:16:35.703Z,11.47
2023-01-09T12:19:28.623Z,11.47
2023-01-09T12:22:23.398Z,11.56
2023-01-09T12:25:03.878Z,11.68
2023-01-09T12:28:09.492Z,11.81
2023-01-09T12:31:26.049Z,11.94
2023-01-09T12:34:00.362Z,12.00
2023-01-09T12:36:37.351Z,12.02
2023-01-09T12:39:56.590Z,12.00
2023-01-09T12:42:46.039Z,11.96
2023-01-09T12:45:36.415Z,11.90
2023-01-09T12:48:43.723Z,11.83
2023-01-09T12:51:24.381Z,11.78
2023-01-09T12:54:03.688Z,11.74
2023-01-09T12:56:42.069Z,11.69
2023-01-09T12:59:39.136Z,11.64
2023-01-09T13:02:30.776Z,11.57
2023-01-09T13:05:28.658Z,11.47
2023-01-09T13:08:07.042Z,11.36
2023-01-09T13:10:42.498Z,11.27
2023-01-09T13:13:36.592Z,11.20
2023-01-09T13:16:15.945Z,11.11
2023-01-09T13:19:03.520Z,11.03
2023-01-09T13:21:35.599Z,10.97
2023-01-09T13:24:37.884Z,10.90
2023-01-09T13:28:05.274Z,10.84
2023-01-09T13:31:02.334Z,10.78
2023-01-09T13:33:38.761Z,10.74
2023-01-09T13:36:08.156Z,10.70
2023-01-09T13:38:38.867Z,10.66
2023-01-09T13:41:33.707Z,10.63
2023-01-09T13:44:07.979Z,10.59
2023-01-09T13:46:44.399Z,10.56
2023-01-09T13:49:44.160Z,10.52
2023-01-09T13:52:24.863Z,10.48
2023-01-09T13:54:58.460Z,10.44
2023-01-09T13:57:35.976Z,10.40
2023-01-09T14:00:15.015Z,10.36
2023-01-09T14:02:46.842Z,10.32
2023-01-09T14:05:36.836Z,10.28
2023-01-09T14:08:30.576Z,10.23
2023-01-09T14:11:01.331Z,10.19
2023-01-09T14:13:45.778Z,10.16
2023-01-09T14:16:25.741Z,10.11
2023-01-09T14:19:24.828Z,10.06
2023-01-09T14:21:58.692Z,10.01
2023-01-09T14:24:44.081Z,9.96
2023-01-09T14:27:37.809Z,9.89
2023-01-09T14:30:28.313Z,9.82
2023-01-09T14:33:18.979Z,9.77
2023-01-09T14:36:15.062Z,9.71
2023-01-09T14:38:48.361Z,9.64
2023-01-09T14:41:57.011Z,9.58
2023-01-09T14:44:44.981Z,9.52
2023-01-09T14:47:36.559Z,9.46
2023-01-09T14:50:19.226Z,9.41
2023-01-09T14:53:06.243Z,9.35
2023-01-09T14:55:58.627Z,9.30
2023-01-09T14:58:28.419Z,9.27
2023-01-09T15:01:06.237Z,9.24
2023-01-09T15:03:40.990Z,9.20
2023-01-09T15:06:18.753Z,9.17
2023-01-09T15:08:51.817Z,9.13
2023-01-09T15:11:20.361Z,9.10
2023-01-09T15:13:53.569Z,9.07
2023-01-09T15:16:25.104Z,9.04
2023-01-09T15:19:07.760Z,9.00
2023-01-09T15:21:36.210Z,8.96
2023-01-09T15:24:30.715Z,8.91
2023-01-09T15:27:50.535Z,8.88
2023-01-09T15:30:24.436Z,8.84
2023-01-09T15:32:55.214Z,8.82
2023-01-09T15:35:25.002Z,8.80
2023-01-09T15:38:02.863Z,8.77
2023-01-09T15:40:36.268Z,8.75
2023-01-09T15:43:04.774Z,8.72
2023-01-09T15:45:42.508Z,8.70
2023-01-09T15:48:35.071Z,8.68
2023-01-09T15:51:10.342Z,8.67
2023-01-09T15:53:41.341Z,8.66
2023-01-09T15:56:12.527Z,8.65
2023-01-09T15:58:47.379Z,8.64
2023-01-09T16:01:40.769Z,8.64
2023-01-09T16:04:13.152Z,8.64
2023-01-09T16:06:46.957Z,8.63
2023-01-09T16:09:23.839Z,8.62
2023-01-09T16:12:46.533Z,8.61
2023-01-09T16:15:18.479Z,8.60
2023-01-09T16:18:17.889Z,8.59
2023-01-09T16:20:46.498Z,8.58
2023-01-09T16:23:31.839Z,8.57
2023-01-09T16:26:07.202Z,8.57
2023-01-09T16:28:35.659Z,8.56
2023-01-09T16:31:09.961Z,8.56
2023-01-09T16:33:48.802Z,8.56
2023-01-09T16:36:17.388Z,8.55
2023-01-09T16:38:46.226Z,8.54
2023-01-09T16:41:38.417Z,8.53
2023-01-09T16:44:10.048Z,8.52
2023-01-09T16:46:44.372Z,8.51
2023-01-09T16:49:24.581Z,8.50
2023-01-09T16:51:53.535Z,8.48
2023-01-09T16:54:22.298Z,8.46
2023-01-09T16:56:53.654Z,8.44
2023-01-09T16:59:27.177Z,8.40
2023-01-09T17:01:58.400Z,8.38
2023-01-09T17:04:27.169Z,8.36
2023-01-09T17:06:58.487Z,8.34
2023-01-09T17:09:27.796Z,8.32
2023-01-09T17:11:57.801Z,8.29
2023-01-09T17:14:28.831Z,8.27
2023-01-09T17:16:58.209Z,8.24
2023-01-09T17:19:26.764Z,8.21
2023-01-09T17:21:55.157Z,8.15
2023-01-09T17:24:42.289Z,8.12
2023-01-09T17:27:29.894Z,8.08
2023-01-09T17:30:05.578Z,8.04
2023-01-09T17:32:42.133Z,8.00
2023-01-09T17:35:13.184Z,7.99
2023-01-09T17:37:43.089Z,7.97
2023-01-09T17:40:23.199Z,7.95
2023-01-09T17:42:51.611Z,7.92
2023-01-09T17:45:21.341Z,7.89
2023-01-09T17:47:49.780Z,7.85
2023-01-09T17:50:21.056Z,7.81
2023-01-09T17:52:51.007Z,7.77
2023-01-09T17:55:19.675Z,7.74
2023-01-09T17:57:48.114Z,7.70
2023-01-09T18:00:36.928Z,7.69
2023-01-09T18:03:07.592Z,7.67
2023-01-09T18:05:37.211Z,7.65
2023-01-09T18:08:09.355Z,7.64
2023-01-09T18:10:37.934Z,7.60
2023-01-09T18:13:06.882Z,7.56
2023-01-09T18:15:35.385Z,7.54
2023-01-09T18:18:06.591Z,7.53
2023-01-09T18:20:45.310Z,7.52
2023-01-09T18:23:16.601Z,7.51
2023-01-09T18:25:45.153Z,7.49
2023-01-09T18:28:16.281Z,7.47
2023-01-09T18:30:47.516Z,7.45
2023-01-09T18:33:18.721Z,7.43
2023-01-09T18:35:47.306Z,7.42
2023-01-09T18:38:23.462Z,7.42
2023-01-09T18:40:52.068Z,7.40
2023-01-09T18:43:21.603Z,7.39
2023-01-09T18:45:50.093Z,7.37
2023-01-09T18:48:18.636Z,7.36
2023-01-09T18:50:58.747Z,7.35
2023-01-09T18:53:27.263Z,7.34
2023-01-09T18:55:58.368Z,7.33
2023-01-09T18:58:26.788Z,7.32
2023-01-09T19:00:56.373Z,7.30
2023-01-09T19:03:24.899Z,7.30
2023-01-09T19:05:53.188Z,7.29
2023-01-09T19:08:21.662Z,7.28
2023-01-09T19:10:53.500Z,7.27
2023-01-09T19:13:22.110Z,7.25
2023-01-09T19:15:55.888Z,7.23
2023-01-09T19:18:28.791Z,7.21
2023-01-09T19:20:57.275Z,7.20
2023-01-09T19:23:25.670Z,7.19
2023-01-09T19:25:54.791Z,7.19
2023-01-09T19:28:23.421Z,7.19
2023-01-09T19:30:59.219Z,7.20
2023-01-09T19:33:28.215Z,7.21
2023-01-09T19:35:56.753Z,7.23
2023-01-09T19:38:26.893Z,7.24
2023-01-09T19:40:58.198Z,7.26
2023-01-09T19:43:29.851Z,7.26
2023-01-09T19:45:58.439Z,7.25
2023-01-09T19:48:29.125Z,7.25
2023-01-09T19:51:06.069Z,7.25
2023-01-09T19:53:38.963Z,7.25
2023-01-09T19:56:14.774Z,7.25
2023-01-09T19:58:52.212Z,7.25
2023-01-09T20:01:26.494Z,7.24
2023-01-09T20:04:03.008Z,7.23
2023-01-09T20:06:32.778Z,7.23
2023-01-09T20:09:03.755Z,7.22
2023-01-09T20:11:33.367Z,7.22
2023-01-09T20:14:05.644Z,7.21
2023-01-09T20:16:34.127Z,7.20
2023-01-09T20:19:08.793Z,7.18
2023-01-09T20:21:37.850Z,7.16
2023-01-09T20:24:11.144Z,7.12
2023-01-09T20:26:40.721Z,7.11
2023-01-09T20:29:12.758Z,7.09
2023-01-09T20:31:46.890Z,7.06
2023-01-09T20:34:17.422Z,7.04
2023-01-09T20:36:46.455Z,7.02
2023-01-09T20:39:15.012Z,7.01
2023-01-09T20:41:46.275Z,7.00
2023-01-09T20:44:16.860Z,7.00
2023-01-09T20:46:48.259Z,6.99
2023-01-09T20:49:20.628Z,6.99
2023-01-09T20:51:52.343Z,6.98
2023-01-09T20:54:21.807Z,6.96
2023-01-09T20:56:53.719Z,6.93
2023-01-09T20:59:27.585Z,6.91
2023-01-09T21:01:56.144Z,6.89
2023-01-09T21:04:24.891Z,6.88
2023-01-09T21:06:53.355Z,6.86
2023-01-09T21:09:22.072Z,6.84
2023-01-09T21:11:58.113Z,6.83
2023-01-09T21:14:26.817Z,6.83
2023-01-09T21:16:55.514Z,6.83
2023-01-09T21:19:27.093Z,6.82
2023-01-09T21:21:58.877Z,6.82
2023-01-09T21:24:32.274Z,6.80
2023-01-09T21:27:00.739Z,6.79
2023-01-09T21:29:31.798Z,6.77
2023-01-09T21:32:08.693Z,6.76
2023-01-09T21:34:42.241Z,6.74
2023-01-09T21:37:12.715Z,6.73
2023-01-09T21:39:41.798Z,6.72
2023-01-09T21:42:31.911Z,6.72
2023-01-09T21:45:18.899Z,6.72
2023-01-09T21:47:47.815Z,6.71
2023-01-09T21:50:17.489Z,6.71
2023-01-09T21:52:45.962Z,6.71
2023-01-09T21:55:14.633Z,6.70
2023-01-09T21:57:43.028Z,6.69
2023-01-09T22:00:11.923Z,6.68
2023-01-09T22:02:41.135Z,6.67
2023-01-09T22:05:15.008Z,6.65
2023-01-09T22:07:43.355Z,6.64
2023-01-09T22:10:12.544Z,6.64
2023-01-09T22:13:00.865Z,6.62
2023-01-09T22:15:29.557Z,6.63
2023-01-09T22:18:00.447Z,6.63
2023-01-09T22:20:29.138Z,6.64
2023-01-09T22:22:57.599Z,6.64
2023-01-09T22:25:25.966Z,6.63
2023-01-09T22:27:54.336Z,6.64
2023-01-09T22:30:22.642Z,6.65
2023-01-09T22:32:51.036Z,6.65
2023-01-09T22:35:19.506Z,6.65
2023-01-09T22:37:52.282Z,6.65
2023-01-09T22:40:20.892Z,6.65
2023-01-09T22:42:52.980Z,6.66
2023-01-09T22:45:22.114Z,6.66
2023-01-09T22:47:54.004Z,6.65
2023-01-09T22:50:23.127Z,6.65
2023-01-09T22:52:54.390Z,6.65
2023-01-09T22:55:28.967Z,6.64
2023-01-09T22:57:57.263Z,6.62
2023-01-09T23:00:25.663Z,6.60
2023-01-09T23:08:48.048Z,6.57
2023-01-09T23:11:55.365Z,6.56
2023-01-09T23:14:23.524Z,6.54
2023-01-09T23:16:51.766Z,6.53
2023-01-09T23:19:20.038Z,6.51
2023-01-09T23:21:48.562Z,6.50
2023-01-09T23:24:17.987Z,6.49
2023-01-09T23:26:46.590Z,6.49
2023-01-09T23:29:15.133Z,6.49
2023-01-09T23:31:43.398Z,6.50
2023-01-09T23:34:19.848Z,6.50
2023-01-09T23:36:49.608Z,6.50
2023-01-09T23:39:17.970Z,6.51
2023-01-09T23:42:04.881Z,6.51
2023-01-09T23:44:36.486Z,6.50
2023-01-09T23:47:05.398Z,6.50
2023-01-09T23:49:33.662Z,6.48
2023-01-09T23:52:05.008Z,6.47
2023-01-09T23:54:33.141Z,6.46
2023-01-09T23:57:27.314Z,6.45
2023-01-09T23:59:55.528Z,6.44
